sensor_id;sensor_type;location;lat;lon;timestamp;P1;durP1;ratioP1;P2;durP2;ratioP2
43756;SDS011;73222;41.866;12.462;2024-02-26T00:01:54;7.55;;;4.13;;
43756;SDS011;73222;41.866;12.462;2024-02-26T00:04:19;6.15;;;4.10;;
43756;SDS011;73222;41.866;12.462;2024-02-26T00:06:46;7.20;;;3.97;;
43756;SDS011;73222;41.866;12.462;2024-02-26T00:09:13;5.68;;;3.83;;
43756;SDS011;73222;41.866;12.462;2024-02-26T00:11:38;6.72;;;4.10;;
43756;SDS011;73222;41.866;12.462;2024-02-26T00:14:04;5.55;;;3.75;;
43756;SDS011;73222;41.866;12.462;2024-02-26T00:16:29;6.18;;;3.80;;
43756;SDS011;73222;41.866;12.462;2024-02-26T00:18:55;4.85;;;3.47;;
43756;SDS011;73222;41.866;12.462;2024-02-26T00:21:20;6.55;;;3.60;;
43756;SDS011;73222;41.866;12.462;2024-02-26T00:23:46;8.45;;;4.40;;
43756;SDS011;73222;41.866;12.462;2024-02-26T00:26:11;7.35;;;3.97;;
43756;SDS011;73222;41.866;12.462;2024-02-26T00:28:37;6.30;;;3.55;;
43756;SDS011;73222;41.866;12.462;2024-02-26T00:31:03;7.97;;;4.13;;
43756;SDS011;73222;41.866;12.462;2024-02-26T00:33:28;8.88;;;4.40;;
43756;SDS011;73222;41.866;12.462;2024-02-26T00:35:54;6.63;;;4.40;;
43756;SDS011;73222;41.866;12.462;2024-02-26T00:38:19;8.57;;;5.25;;
43756;SDS011;73222;41.866;12.462;2024-02-26T00:40:45;11.23;;;5.93;;
43756;SDS011;73222;41.866;12.462;2024-02-26T00:43:11;7.18;;;5.20;;
43756;SDS011;73222;41.866;12.462;2024-02-26T00:45:36;9.18;;;4.85;;
43756;SDS011;73222;41.866;12.462;2024-02-26T00:48:01;8.40;;;5.30;;
43756;SDS011;73222;41.866;12.462;2024-02-26T00:50:30;9.05;;;4.68;;
43756;SDS011;73222;41.866;12.462;2024-02-26T00:52:56;6.60;;;4.43;;
43756;SDS011;73222;41.866;12.462;2024-02-26T00:55:21;6.13;;;4.70;;
43756;SDS011;73222;41.866;12.462;2024-02-26T00:57:47;7.80;;;4.85;;
43756;SDS011;73222;41.866;12.462;2024-02-26T01:00:12;9.23;;;5.18;;
43756;SDS011;73222;41.866;12.462;2024-02-26T01:02:39;6.78;;;4.38;;
43756;SDS011;73222;41.866;12.462;2024-02-26T01:05:05;8.32;;;4.93;;
43756;SDS011;73222;41.866;12.462;2024-02-26T01:07:31;8.25;;;5.13;;
43756;SDS011;73222;41.866;12.462;2024-02-26T01:10:00;8.57;;;5.18;;
43756;SDS011;73222;41.866;12.462;2024-02-26T01:12:30;8.52;;;5.07;;
43756;SDS011;73222;41.866;12.462;2024-02-26T01:14:56;7.93;;;5.25;;
43756;SDS011;73222;41.866;12.462;2024-02-26T01:17:21;8.73;;;5.63;;
43756;SDS011;73222;41.866;12.462;2024-02-26T01:19:46;10.73;;;6.10;;
43756;SDS011;73222;41.866;12.462;2024-02-26T01:22:12;10.38;;;6.65;;
43756;SDS011;73222;41.866;12.462;2024-02-26T01:24:37;11.52;;;6.68;;
43756;SDS011;73222;41.866;12.462;2024-02-26T01:27:03;11.57;;;7.03;;
43756;SDS011;73222;41.866;12.462;2024-02-26T01:29:29;8.88;;;6.28;;
43756;SDS011;73222;41.866;12.462;2024-02-26T01:31:54;12.15;;;7.40;;
43756;SDS011;73222;41.866;12.462;2024-02-26T01:34:20;13.18;;;7.30;;
43756;SDS011;73222;41.866;12.462;2024-02-26T01:36:45;9.95;;;7.03;;
43756;SDS011;73222;41.866;12.462;2024-02-26T01:39:11;13.20;;;9.00;;
43756;SDS011;73222;41.866;12.462;2024-02-26T01:41:37;13.60;;;8.38;;
43756;SDS011;73222;41.866;12.462;2024-02-26T01:44:03;14.55;;;8.90;;
43756;SDS011;73222;41.866;12.462;2024-02-26T01:46:29;17.08;;;9.18;;
43756;SDS011;73222;41.866;12.462;2024-02-26T01:48:55;17.48;;;10.70;;
43756;SDS011;73222;41.866;12.462;2024-02-26T01:51:21;13.30;;;10.30;;
43756;SDS011;73222;41.866;12.462;2024-02-26T01:53:47;17.45;;;10.40;;
43756;SDS011;73222;41.866;12.462;2024-02-26T01:56:13;15.35;;;10.18;;
43756;SDS011;73222;41.866;12.462;2024-02-26T01:58:41;15.65;;;9.18;;
43756;SDS011;73222;41.866;12.462;2024-02-26T02:01:06;23.27;;;10.63;;
43756;SDS011;73222;41.866;12.462;2024-02-26T02:03:32;15.80;;;9.50;;
43756;SDS011;73222;41.866;12.462;2024-02-26T02:05:58;17.42;;;11.05;;
43756;SDS011;73222;41.866;12.462;2024-02-26T02:08:24;17.65;;;10.50;;
43756;SDS011;73222;41.866;12.462;2024-02-26T02:10:50;19.95;;;11.52;;
43756;SDS011;73222;41.866;12.462;2024-02-26T02:13:15;19.20;;;11.25;;
43756;SDS011;73222;41.866;12.462;2024-02-26T02:15:41;15.82;;;10.80;;
43756;SDS011;73222;41.866;12.462;2024-02-26T02:18:06;20.20;;;12.13;;
43756;SDS011;73222;41.866;12.462;2024-02-26T02:20:32;19.40;;;11.13;;
43756;SDS011;73222;41.866;12.462;2024-02-26T02:22:59;16.85;;;11.85;;
43756;SDS011;73222;41.866;12.462;2024-02-26T02:25:24;21.73;;;12.02;;
43756;SDS011;73222;41.866;12.462;2024-02-26T02:27:50;21.95;;;12.95;;
43756;SDS011;73222;41.866;12.462;2024-02-26T02:30:16;18.85;;;12.20;;
43756;SDS011;73222;41.866;12.462;2024-02-26T02:32:42;17.77;;;11.23;;
43756;SDS011;73222;41.866;12.462;2024-02-26T02:35:08;24.88;;;12.65;;
43756;SDS011;73222;41.866;12.462;2024-02-26T02:37:34;18.85;;;12.13;;
43756;SDS011;73222;41.866;12.462;2024-02-26T02:39:59;19.30;;;12.07;;
43756;SDS011;73222;41.866;12.462;2024-02-26T02:42:25;19.40;;;11.32;;
43756;SDS011;73222;41.866;12.462;2024-02-26T02:44:51;23.00;;;12.70;;
43756;SDS011;73222;41.866;12.462;2024-02-26T02:47:16;15.88;;;12.40;;
43756;SDS011;73222;41.866;12.462;2024-02-26T02:49:42;22.17;;;13.15;;
43756;SDS011;73222;41.866;12.462;2024-02-26T02:52:07;19.02;;;12.32;;
43756;SDS011;73222;41.866;12.462;2024-02-26T02:54:32;18.65;;;12.85;;
43756;SDS011;73222;41.866;12.462;2024-02-26T02:56:58;19.42;;;11.05;;
43756;SDS011;73222;41.866;12.462;2024-02-26T02:59:23;19.25;;;11.65;;
43756;SDS011;73222;41.866;12.462;2024-02-26T03:01:48;18.58;;;11.43;;
43756;SDS011;73222;41.866;12.462;2024-02-26T03:04:14;19.98;;;12.27;;
43756;SDS011;73222;41.866;12.462;2024-02-26T03:06:39;19.13;;;12.23;;
43756;SDS011;73222;41.866;12.462;2024-02-26T03:09:05;18.20;;;11.63;;
43756;SDS011;73222;41.866;12.462;2024-02-26T03:11:30;18.25;;;11.20;;
43756;SDS011;73222;41.866;12.462;2024-02-26T03:13:55;23.35;;;11.68;;
43756;SDS011;73222;41.866;12.462;2024-02-26T03:16:21;16.75;;;12.07;;
43756;SDS011;73222;41.866;12.462;2024-02-26T03:18:46;17.98;;;12.38;;
43756;SDS011;73222;41.866;12.462;2024-02-26T03:21:11;19.85;;;12.07;;
43756;SDS011;73222;41.866;12.462;2024-02-26T03:23:37;18.05;;;11.75;;
43756;SDS011;73222;41.866;12.462;2024-02-26T03:26:05;16.58;;;11.02;;
43756;SDS011;73222;41.866;12.462;2024-02-26T03:28:31;16.35;;;10.32;;
43756;SDS011;73222;41.866;12.462;2024-02-26T03:30:58;18.33;;;11.32;;
43756;SDS011;73222;41.866;12.462;2024-02-26T03:33:24;20.17;;;11.57;;
43756;SDS011;73222;41.866;12.462;2024-02-26T03:35:49;17.27;;;11.77;;
43756;SDS011;73222;41.866;12.462;2024-02-26T03:38:15;20.25;;;12.32;;
43756;SDS011;73222;41.866;12.462;2024-02-26T03:40:40;19.08;;;11.30;;
43756;SDS011;73222;41.866;12.462;2024-02-26T03:43:05;21.23;;;11.77;;
43756;SDS011;73222;41.866;12.462;2024-02-26T03:45:32;17.50;;;11.65;;
43756;SDS011;73222;41.866;12.462;2024-02-26T03:47:58;17.45;;;11.57;;
43756;SDS011;73222;41.866;12.462;2024-02-26T03:50:24;16.20;;;10.65;;
43756;SDS011;73222;41.866;12.462;2024-02-26T03:52:49;17.05;;;10.40;;
43756;SDS011;73222;41.866;12.462;2024-02-26T03:55:15;18.48;;;11.98;;
43756;SDS011;73222;41.866;12.462;2024-02-26T03:57:40;21.75;;;11.45;;
43756;SDS011;73222;41.866;12.462;2024-02-26T04:00:06;19.38;;;11.88;;
43756;SDS011;73222;41.866;12.462;2024-02-26T04:02:31;18.23;;;12.10;;
43756;SDS011;73222;41.866;12.462;2024-02-26T04:04:57;17.55;;;10.93;;
43756;SDS011;73222;41.866;12.462;2024-02-26T04:07:24;18.45;;;11.55;;
43756;SDS011;73222;41.866;12.462;2024-02-26T04:09:49;19.13;;;11.63;;
43756;SDS011;73222;41.866;12.462;2024-02-26T04:12:14;17.77;;;11.50;;
43756;SDS011;73222;41.866;12.462;2024-02-26T04:14:40;21.38;;;12.38;;
43756;SDS011;73222;41.866;12.462;2024-02-26T04:17:05;17.35;;;11.90;;
43756;SDS011;73222;41.866;12.462;2024-02-26T04:19:30;19.13;;;12.75;;
43756;SDS011;73222;41.866;12.462;2024-02-26T04:21:56;18.35;;;11.63;;
43756;SDS011;73222;41.866;12.462;2024-02-26T04:24:21;20.58;;;12.55;;
43756;SDS011;73222;41.866;12.462;2024-02-26T04:26:47;17.98;;;11.88;;
43756;SDS011;73222;41.866;12.462;2024-02-26T04:29:14;16.95;;;11.38;;
43756;SDS011;73222;41.866;12.462;2024-02-26T04:31:40;18.77;;;11.60;;
43756;SDS011;73222;41.866;12.462;2024-02-26T04:34:07;17.08;;;11.77;;
43756;SDS011;73222;41.866;12.462;2024-02-26T04:36:33;18.60;;;12.10;;
43756;SDS011;73222;41.866;12.462;2024-02-26T04:38:58;18.27;;;11.82;;
43756;SDS011;73222;41.866;12.462;2024-02-26T04:41:23;18.83;;;12.27;;
43756;SDS011;73222;41.866;12.462;2024-02-26T04:43:49;19.30;;;11.85;;
43756;SDS011;73222;41.866;12.462;2024-02-26T04:46:14;19.25;;;11.95;;
43756;SDS011;73222;41.866;12.462;2024-02-26T04:48:39;14.85;;;10.93;;
43756;SDS011;73222;41.866;12.462;2024-02-26T04:51:06;19.80;;;12.57;;
43756;SDS011;73222;41.866;12.462;2024-02-26T04:53:32;17.13;;;11.18;;
43756;SDS011;73222;41.866;12.462;2024-02-26T04:55:57;16.95;;;11.77;;
43756;SDS011;73222;41.866;12.462;2024-02-26T04:58:22;19.80;;;11.80;;
43756;SDS011;73222;41.866;12.462;2024-02-26T05:00:48;19.73;;;11.32;;
43756;SDS011;73222;41.866;12.462;2024-02-26T05:03:13;22.35;;;12.27;;
43756;SDS011;73222;41.866;12.462;2024-02-26T05:05:40;17.02;;;11.35;;
43756;SDS011;73222;41.866;12.462;2024-02-26T05:08:06;18.90;;;11.43;;
43756;SDS011;73222;41.866;12.462;2024-02-26T05:10:32;19.60;;;11.43;;
43756;SDS011;73222;41.866;12.462;2024-02-26T05:12:58;20.77;;;12.63;;
43756;SDS011;73222;41.866;12.462;2024-02-26T05:15:23;22.35;;;11.70;;
43756;SDS011;73222;41.866;12.462;2024-02-26T05:17:49;18.60;;;12.27;;
43756;SDS011;73222;41.866;12.462;2024-02-26T05:20:14;20.98;;;11.75;;
43756;SDS011;73222;41.866;12.462;2024-02-26T05:22:39;20.48;;;11.90;;
43756;SDS011;73222;41.866;12.462;2024-02-26T05:25:05;16.52;;;11.63;;
43756;SDS011;73222;41.866;12.462;2024-02-26T05:27:30;19.75;;;11.82;;
43756;SDS011;73222;41.866;12.462;2024-02-26T05:29:56;17.75;;;12.05;;
43756;SDS011;73222;41.866;12.462;2024-02-26T05:32:21;19.95;;;11.77;;
43756;SDS011;73222;41.866;12.462;2024-02-26T05:34:47;16.23;;;11.18;;
43756;SDS011;73222;41.866;12.462;2024-02-26T05:37:12;15.70;;;11.32;;
43756;SDS011;73222;41.866;12.462;2024-02-26T05:39:38;16.02;;;11.07;;
43756;SDS011;73222;41.866;12.462;2024-02-26T05:42:03;17.05;;;11.50;;
43756;SDS011;73222;41.866;12.462;2024-02-26T05:44:29;18.73;;;11.55;;
43756;SDS011;73222;41.866;12.462;2024-02-26T05:46:54;18.42;;;11.30;;
43756;SDS011;73222;41.866;12.462;2024-02-26T05:49:20;17.98;;;11.70;;
43756;SDS011;73222;41.866;12.462;2024-02-26T05:51:47;18.35;;;10.77;;
43756;SDS011;73222;41.866;12.462;2024-02-26T05:54:12;18.42;;;11.35;;
43756;SDS011;73222;41.866;12.462;2024-02-26T05:56:37;19.13;;;11.32;;
43756;SDS011;73222;41.866;12.462;2024-02-26T05:59:03;18.65;;;12.15;;
43756;SDS011;73222;41.866;12.462;2024-02-26T06:01:28;16.95;;;11.80;;
43756;SDS011;73222;41.866;12.462;2024-02-26T06:03:54;16.80;;;11.38;;
43756;SDS011;73222;41.866;12.462;2024-02-26T06:06:19;21.15;;;11.65;;
43756;SDS011;73222;41.866;12.462;2024-02-26T06:08:46;21.08;;;11.02;;
43756;SDS011;73222;41.866;12.462;2024-02-26T06:11:12;18.35;;;9.93;;
43756;SDS011;73222;41.866;12.462;2024-02-26T06:13:38;17.25;;;11.30;;
43756;SDS011;73222;41.866;12.462;2024-02-26T06:16:03;17.73;;;10.85;;
43756;SDS011;73222;41.866;12.462;2024-02-26T06:18:30;16.17;;;10.13;;
43756;SDS011;73222;41.866;12.462;2024-02-26T06:20:55;16.35;;;10.40;;
43756;SDS011;73222;41.866;12.462;2024-02-26T06:23:20;16.80;;;10.25;;
43756;SDS011;73222;41.866;12.462;2024-02-26T06:25:46;17.13;;;9.15;;
43756;SDS011;73222;41.866;12.462;2024-02-26T06:28:13;21.42;;;9.32;;
43756;SDS011;73222;41.866;12.462;2024-02-26T06:30:38;12.48;;;8.43;;
43756;SDS011;73222;41.866;12.462;2024-02-26T06:33:04;16.30;;;9.75;;
43756;SDS011;73222;41.866;12.462;2024-02-26T06:35:29;14.25;;;8.88;;
43756;SDS011;73222;41.866;12.462;2024-02-26T06:37:55;27.13;;;9.73;;
43756;SDS011;73222;41.866;12.462;2024-02-26T06:40:20;13.18;;;8.63;;
43756;SDS011;73222;41.866;12.462;2024-02-26T06:42:46;12.05;;;8.77;;
43756;SDS011;73222;41.866;12.462;2024-02-26T06:45:11;15.85;;;9.50;;
43756;SDS011;73222;41.866;12.462;2024-02-26T06:47:37;12.52;;;9.18;;
43756;SDS011;73222;41.866;12.462;2024-02-26T06:50:02;14.63;;;9.30;;
43756;SDS011;73222;41.866;12.462;2024-02-26T06:52:28;12.57;;;8.75;;
43756;SDS011;73222;41.866;12.462;2024-02-26T06:54:53;13.45;;;8.90;;
43756;SDS011;73222;41.866;12.462;2024-02-26T06:57:19;16.00;;;8.82;;
43756;SDS011;73222;41.866;12.462;2024-02-26T06:59:45;14.77;;;9.57;;
43756;SDS011;73222;41.866;12.462;2024-02-26T07:02:12;14.30;;;9.40;;
43756;SDS011;73222;41.866;12.462;2024-02-26T07:04:41;17.90;;;10.40;;
43756;SDS011;73222;41.866;12.462;2024-02-26T07:07:07;16.13;;;9.00;;
43756;SDS011;73222;41.866;12.462;2024-02-26T07:09:33;14.20;;;10.07;;
43756;SDS011;73222;41.866;12.462;2024-02-26T07:11:58;15.60;;;9.30;;
43756;SDS011;73222;41.866;12.462;2024-02-26T07:14:23;14.43;;;9.80;;
43756;SDS011;73222;41.866;12.462;2024-02-26T07:16:52;16.05;;;9.63;;
43756;SDS011;73222;41.866;12.462;2024-02-26T07:21:43;10.90;;;8.83;;
43756;SDS011;73222;41.866;12.462;2024-02-26T07:24:08;12.55;;;8.73;;
43756;SDS011;73222;41.866;12.462;2024-02-26T07:26:34;12.18;;;8.65;;
43756;SDS011;73222;41.866;12.462;2024-02-26T07:28:59;18.73;;;9.10;;
43756;SDS011;73222;41.866;12.462;2024-02-26T07:31:29;14.45;;;8.10;;
43756;SDS011;73222;41.866;12.462;2024-02-26T07:33:54;14.40;;;9.23;;
43756;SDS011;73222;41.866;12.462;2024-02-26T07:36:23;14.35;;;8.40;;
43756;SDS011;73222;41.866;12.462;2024-02-26T07:38:48;14.30;;;8.80;;
43756;SDS011;73222;41.866;12.462;2024-02-26T07:41:13;13.57;;;9.07;;
43756;SDS011;73222;41.866;12.462;2024-02-26T07:43:39;12.73;;;8.70;;
43756;SDS011;73222;41.866;12.462;2024-02-26T07:46:05;13.63;;;8.82;;
43756;SDS011;73222;41.866;12.462;2024-02-26T07:48:31;12.30;;;8.88;;
43756;SDS011;73222;41.866;12.462;2024-02-26T07:50:59;14.50;;;9.02;;
43756;SDS011;73222;41.866;12.462;2024-02-26T07:53:25;11.85;;;8.80;;
43756;SDS011;73222;41.866;12.462;2024-02-26T07:55:50;14.52;;;9.75;;
43756;SDS011;73222;41.866;12.462;2024-02-26T07:58:16;15.80;;;9.52;;
43756;SDS011;73222;41.866;12.462;2024-02-26T08:00:41;12.48;;;8.95;;
43756;SDS011;73222;41.866;12.462;2024-02-26T08:03:11;13.85;;;9.20;;
43756;SDS011;73222;41.866;12.462;2024-02-26T08:05:38;13.60;;;9.43;;
43756;SDS011;73222;41.866;12.462;2024-02-26T08:08:05;12.52;;;9.15;;
43756;SDS011;73222;41.866;12.462;2024-02-26T08:10:31;16.73;;;10.18;;
43756;SDS011;73222;41.866;12.462;2024-02-26T08:12:57;14.02;;;9.18;;
43756;SDS011;73222;41.866;12.462;2024-02-26T08:15:32;10.82;;;8.52;;
43756;SDS011;73222;41.866;12.462;2024-02-26T08:17:59;11.10;;;8.90;;
43756;SDS011;73222;41.866;12.462;2024-02-26T08:20:28;13.25;;;9.25;;
43756;SDS011;73222;41.866;12.462;2024-02-26T08:22:59;16.70;;;9.15;;
43756;SDS011;73222;41.866;12.462;2024-02-26T08:25:25;16.33;;;8.85;;
43756;SDS011;73222;41.866;12.462;2024-02-26T08:27:51;13.90;;;8.32;;
43756;SDS011;73222;41.866;12.462;2024-02-26T08:30:17;13.38;;;8.48;;
43756;SDS011;73222;41.866;12.462;2024-02-26T08:32:42;11.77;;;7.95;;
43756;SDS011;73222;41.866;12.462;2024-02-26T08:35:09;14.15;;;7.82;;
43756;SDS011;73222;41.866;12.462;2024-02-26T08:37:34;14.65;;;7.72;;
43756;SDS011;73222;41.866;12.462;2024-02-26T08:40:00;12.15;;;7.70;;
43756;SDS011;73222;41.866;12.462;2024-02-26T08:42:25;12.05;;;6.75;;
43756;SDS011;73222;41.866;12.462;2024-02-26T08:44:50;10.57;;;7.38;;
43756;SDS011;73222;41.866;12.462;2024-02-26T08:47:16;15.15;;;8.40;;
43756;SDS011;73222;41.866;12.462;2024-02-26T08:49:44;12.93;;;7.82;;
43756;SDS011;73222;41.866;12.462;2024-02-26T08:52:10;12.00;;;7.68;;
43756;SDS011;73222;41.866;12.462;2024-02-26T08:54:35;13.38;;;7.78;;
43756;SDS011;73222;41.866;12.462;2024-02-26T08:57:01;13.82;;;7.75;;
43756;SDS011;73222;41.866;12.462;2024-02-26T08:59:27;21.23;;;8.60;;
43756;SDS011;73222;41.866;12.462;2024-02-26T09:01:53;11.52;;;7.07;;
43756;SDS011;73222;41.866;12.462;2024-02-26T09:04:18;12.65;;;7.20;;
43756;SDS011;73222;41.866;12.462;2024-02-26T09:06:44;16.55;;;5.80;;
43756;SDS011;73222;41.866;12.462;2024-02-26T09:09:09;10.88;;;5.72;;
43756;SDS011;73222;41.866;12.462;2024-02-26T09:11:34;10.23;;;5.03;;
43756;SDS011;73222;41.866;12.462;2024-02-26T09:14:00;10.40;;;5.00;;
43756;SDS011;73222;41.866;12.462;2024-02-26T09:16:25;8.10;;;5.28;;
43756;SDS011;73222;41.866;12.462;2024-02-26T09:18:50;10.00;;;4.45;;
43756;SDS011;73222;41.866;12.462;2024-02-26T09:21:16;9.30;;;4.15;;
43756;SDS011;73222;41.866;12.462;2024-02-26T09:23:47;7.55;;;3.50;;
43756;SDS011;73222;41.866;12.462;2024-02-26T09:26:13;11.75;;;3.72;;
43756;SDS011;73222;41.866;12.462;2024-02-26T09:28:38;6.97;;;3.40;;
43756;SDS011;73222;41.866;12.462;2024-02-26T09:55:37;3.72;;;1.90;;
43756;SDS011;73222;41.866;12.462;2024-02-26T09:58:03;4.82;;;2.28;;
43756;SDS011;73222;41.866;12.462;2024-02-26T10:00:30;3.50;;;1.90;;
43756;SDS011;73222;41.866;12.462;2024-02-26T10:03:06;4.72;;;2.47;;
43756;SDS011;73222;41.866;12.462;2024-02-26T10:05:38;4.53;;;2.10;;
43756;SDS011;73222;41.866;12.462;2024-02-26T10:08:06;6.80;;;2.10;;
43756;SDS011;73222;41.866;12.462;2024-02-26T10:10:33;5.22;;;2.38;;
43756;SDS011;73222;41.866;12.462;2024-02-26T10:12:59;5.03;;;2.20;;
43756;SDS011;73222;41.866;12.462;2024-02-26T10:15:26;4.60;;;2.20;;
43756;SDS011;73222;41.866;12.462;2024-02-26T10:17:52;6.00;;;2.08;;
43756;SDS011;73222;41.866;12.462;2024-02-26T10:20:17;4.88;;;2.25;;
43756;SDS011;73222;41.866;12.462;2024-02-26T10:22:46;6.22;;;2.05;;
43756;SDS011;73222;41.866;12.462;2024-02-26T10:25:12;5.28;;;2.30;;
43756;SDS011;73222;41.866;12.462;2024-02-26T10:27:37;3.78;;;1.77;;
43756;SDS011;73222;41.866;12.462;2024-02-26T10:30:21;3.25;;;1.95;;
43756;SDS011;73222;41.866;12.462;2024-02-26T10:32:50;3.00;;;2.03;;
43756;SDS011;73222;41.866;12.462;2024-02-26T10:35:16;6.28;;;2.22;;
43756;SDS011;73222;41.866;12.462;2024-02-26T10:37:46;7.25;;;1.80;;
43756;SDS011;73222;41.866;12.462;2024-02-26T10:40:12;5.53;;;1.90;;
43756;SDS011;73222;41.866;12.462;2024-02-26T10:42:41;3.70;;;1.83;;
43756;SDS011;73222;41.866;12.462;2024-02-26T10:45:08;2.50;;;1.58;;
43756;SDS011;73222;41.866;12.462;2024-02-26T10:47:34;4.47;;;1.70;;
43756;SDS011;73222;41.866;12.462;2024-02-26T10:50:01;4.55;;;1.60;;
43756;SDS011;73222;41.866;12.462;2024-02-26T10:52:28;3.30;;;1.80;;
43756;SDS011;73222;41.866;12.462;2024-02-26T10:55:02;7.20;;;2.15;;
43756;SDS011;73222;41.866;12.462;2024-02-26T10:57:31;4.28;;;2.10;;
43756;SDS011;73222;41.866;12.462;2024-02-26T10:59:59;4.35;;;2.00;;
43756;SDS011;73222;41.866;12.462;2024-02-26T11:02:26;3.15;;;2.03;;
43756;SDS011;73222;41.866;12.462;2024-02-26T11:04:52;6.93;;;2.00;;
43756;SDS011;73222;41.866;12.462;2024-02-26T11:07:18;4.72;;;1.73;;
43756;SDS011;73222;41.866;12.462;2024-02-26T11:09:45;4.63;;;1.80;;
43756;SDS011;73222;41.866;12.462;2024-02-26T11:12:16;2.90;;;1.70;;
43756;SDS011;73222;41.866;12.462;2024-02-26T11:14:44;3.03;;;1.60;;
43756;SDS011;73222;41.866;12.462;2024-02-26T11:17:11;2.67;;;1.65;;
43756;SDS011;73222;41.866;12.462;2024-02-26T11:19:38;5.53;;;1.70;;
43756;SDS011;73222;41.866;12.462;2024-02-26T11:22:06;3.38;;;1.50;;
43756;SDS011;73222;41.866;12.462;2024-02-26T11:24:32;4.72;;;1.60;;
43756;SDS011;73222;41.866;12.462;2024-02-26T11:26:58;2.30;;;1.33;;
43756;SDS011;73222;41.866;12.462;2024-02-26T11:29:28;2.95;;;1.50;;
43756;SDS011;73222;41.866;12.462;2024-02-26T11:32:00;4.53;;;1.60;;
43756;SDS011;73222;41.866;12.462;2024-02-26T11:34:26;2.28;;;1.40;;
43756;SDS011;73222;41.866;12.462;2024-02-26T11:36:52;2.28;;;1.25;;
43756;SDS011;73222;41.866;12.462;2024-02-26T11:39:19;3.65;;;1.63;;
43756;SDS011;73222;41.866;12.462;2024-02-26T11:41:44;3.33;;;1.48;;
43756;SDS011;73222;41.866;12.462;2024-02-26T11:44:10;6.93;;;1.65;;
43756;SDS011;73222;41.866;12.462;2024-02-26T11:46:42;4.72;;;1.40;;
43756;SDS011;73222;41.866;12.462;2024-02-26T11:51:56;1.88;;;1.13;;
43756;SDS011;73222;41.866;12.462;2024-02-26T11:57:21;2.88;;;1.30;;
43756;SDS011;73222;41.866;12.462;2024-02-26T11:59:54;2.65;;;1.52;;
43756;SDS011;73222;41.866;12.462;2024-02-26T12:05:11;2.65;;;1.42;;
43756;SDS011;73222;41.866;12.462;2024-02-26T12:10:35;2.20;;;1.50;;
43756;SDS011;73222;41.866;12.462;2024-02-26T12:13:12;3.40;;;1.40;;
43756;SDS011;73222;41.866;12.462;2024-02-26T12:18:17;1.92;;;1.40;;
43756;SDS011;73222;41.866;12.462;2024-02-26T12:20:43;2.60;;;1.50;;
43756;SDS011;73222;41.866;12.462;2024-02-26T12:23:09;3.38;;;1.42;;
43756;SDS011;73222;41.866;12.462;2024-02-26T12:25:40;5.68;;;1.42;;
43756;SDS011;73222;41.866;12.462;2024-02-26T12:28:05;2.75;;;1.20;;
43756;SDS011;73222;41.866;12.462;2024-02-26T12:30:32;2.97;;;1.45;;
43756;SDS011;73222;41.866;12.462;2024-02-26T12:32:57;3.50;;;1.38;;
43756;SDS011;73222;41.866;12.462;2024-02-26T12:35:25;3.70;;;1.50;;
43756;SDS011;73222;41.866;12.462;2024-02-26T12:37:52;4.35;;;1.90;;
43756;SDS011;73222;41.866;12.462;2024-02-26T12:40:18;2.95;;;1.70;;
43756;SDS011;73222;41.866;12.462;2024-02-26T12:42:44;4.60;;;1.58;;
43756;SDS011;73222;41.866;12.462;2024-02-26T12:45:11;3.53;;;1.60;;
43756;SDS011;73222;41.866;12.462;2024-02-26T12:47:38;3.88;;;1.67;;
43756;SDS011;73222;41.866;12.462;2024-02-26T12:50:04;2.22;;;1.38;;
43756;SDS011;73222;41.866;12.462;2024-02-26T12:52:33;3.05;;;1.40;;
43756;SDS011;73222;41.866;12.462;2024-02-26T12:55:01;5.18;;;2.10;;
43756;SDS011;73222;41.866;12.462;2024-02-26T12:57:33;4.47;;;2.42;;
43756;SDS011;73222;41.866;12.462;2024-02-26T13:00:00;2.88;;;1.52;;
43756;SDS011;73222;41.866;12.462;2024-02-26T13:02:27;3.25;;;1.65;;
43756;SDS011;73222;41.866;12.462;2024-02-26T13:04:53;4.20;;;1.73;;
43756;SDS011;73222;41.866;12.462;2024-02-26T13:07:20;4.85;;;2.30;;
43756;SDS011;73222;41.866;12.462;2024-02-26T13:09:45;5.10;;;2.20;;
43756;SDS011;73222;41.866;12.462;2024-02-26T13:12:11;3.97;;;2.22;;
43756;SDS011;73222;41.866;12.462;2024-02-26T13:14:37;4.95;;;2.13;;
43756;SDS011;73222;41.866;12.462;2024-02-26T13:17:02;10.35;;;2.85;;
43756;SDS011;73222;41.866;12.462;2024-02-26T13:19:28;5.18;;;2.38;;
43756;SDS011;73222;41.866;12.462;2024-02-26T13:21:54;4.13;;;2.10;;
43756;SDS011;73222;41.866;12.462;2024-02-26T13:24:20;7.07;;;2.20;;
43756;SDS011;73222;41.866;12.462;2024-02-26T13:26:47;4.50;;;2.45;;
43756;SDS011;73222;41.866;12.462;2024-02-26T13:29:19;5.68;;;2.30;;
43756;SDS011;73222;41.866;12.462;2024-02-26T13:31:44;5.88;;;2.10;;
43756;SDS011;73222;41.866;12.462;2024-02-26T13:34:10;5.40;;;2.30;;
43756;SDS011;73222;41.866;12.462;2024-02-26T13:36:35;4.93;;;2.10;;
43756;SDS011;73222;41.866;12.462;2024-02-26T13:39:01;5.70;;;1.98;;
43756;SDS011;73222;41.866;12.462;2024-02-26T13:41:30;5.45;;;1.80;;
43756;SDS011;73222;41.866;12.462;2024-02-26T13:43:55;6.55;;;2.20;;
43756;SDS011;73222;41.866;12.462;2024-02-26T13:46:22;5.78;;;1.92;;
43756;SDS011;73222;41.866;12.462;2024-02-26T13:48:48;5.32;;;1.90;;
43756;SDS011;73222;41.866;12.462;2024-02-26T13:51:13;6.28;;;2.10;;
43756;SDS011;73222;41.866;12.462;2024-02-26T13:53:39;3.65;;;1.75;;
43756;SDS011;73222;41.866;12.462;2024-02-26T13:56:04;4.05;;;1.83;;
43756;SDS011;73222;41.866;12.462;2024-02-26T13:58:30;7.95;;;1.90;;
43756;SDS011;73222;41.866;12.462;2024-02-26T14:00:56;5.78;;;1.80;;
43756;SDS011;73222;41.866;12.462;2024-02-26T14:03:22;3.67;;;1.67;;
43756;SDS011;73222;41.866;12.462;2024-02-26T14:05:47;4.25;;;1.85;;
43756;SDS011;73222;41.866;12.462;2024-02-26T14:08:12;2.50;;;1.30;;
43756;SDS011;73222;41.866;12.462;2024-02-26T14:10:38;3.65;;;1.70;;
43756;SDS011;73222;41.866;12.462;2024-02-26T14:13:04;2.83;;;1.33;;
43756;SDS011;73222;41.866;12.462;2024-02-26T14:15:29;4.38;;;1.30;;
43756;SDS011;73222;41.866;12.462;2024-02-26T14:17:55;2.10;;;1.40;;
43756;SDS011;73222;41.866;12.462;2024-02-26T14:20:21;8.57;;;1.60;;
43756;SDS011;73222;41.866;12.462;2024-02-26T14:22:48;6.22;;;1.73;;
43756;SDS011;73222;41.866;12.462;2024-02-26T14:25:14;4.70;;;1.92;;
43756;SDS011;73222;41.866;12.462;2024-02-26T14:27:40;6.85;;;1.83;;
43756;SDS011;73222;41.866;12.462;2024-02-26T14:30:05;4.10;;;1.50;;
43756;SDS011;73222;41.866;12.462;2024-02-26T14:32:31;6.55;;;1.95;;
43756;SDS011;73222;41.866;12.462;2024-02-26T14:35:02;3.10;;;1.48;;
43756;SDS011;73222;41.866;12.462;2024-02-26T14:37:29;3.33;;;1.33;;
43756;SDS011;73222;41.866;12.462;2024-02-26T14:39:54;14.00;;;2.15;;
43756;SDS011;73222;41.866;12.462;2024-02-26T14:42:20;3.78;;;1.58;;
43756;SDS011;73222;41.866;12.462;2024-02-26T14:44:45;3.60;;;1.65;;
43756;SDS011;73222;41.866;12.462;2024-02-26T14:47:12;2.80;;;1.63;;
43756;SDS011;73222;41.866;12.462;2024-02-26T14:49:38;8.00;;;1.65;;
43756;SDS011;73222;41.866;12.462;2024-02-26T14:52:07;2.38;;;1.38;;
43756;SDS011;73222;41.866;12.462;2024-02-26T14:54:33;4.88;;;1.83;;
43756;SDS011;73222;41.866;12.462;2024-02-26T14:57:02;2.85;;;1.27;;
43756;SDS011;73222;41.866;12.462;2024-02-26T14:59:30;2.60;;;1.30;;